Time;durP1;ratioP1;P1;durP2;ratioP2;P2;SDS_P1;SDS_P2;PMS_P1;PMS_P2;Temp;Humidity;BMP_temperature;BMP_pressure;BME280_temperature;BME280_humidity;BME280_pressure;Samples;Min_cycle;Max_cycle;Signal;HPM_P1;HPM_P2
2023/11/03 00:02:22;;;;;;;4.65;0.80;;;;;;;;;;5023073;28;20429;-72
2023/11/03 00:04:48;;;;;;;1.15;0.50;;;;;;;;;;5030138;28;20657;-75
2023/11/03 00:07:14;;;;;;;1.83;0.70;;;;;;;;;;5031341;28;20212;-73
2023/11/03 00:09:40;;;;;;;1.95;0.50;;;;;;;;;;5028669;28;20214;-73
2023/11/03 00:12:06;;;;;;;1.58;0.60;;;;;;;;;;5046659;28;20197;-73
2023/11/03 00:14:35;;;;;;;2.83;0.47;;;;;;;;;;5029337;28;20222;-73
2023/11/03 00:17:01;;;;;;;3.42;0.57;;;;;;;;;;5030878;28;20244;-74
2023/11/03 00:19:27;;;;;;;3.38;0.47;;;;;;;;;;5030144;28;20194;-74
2023/11/03 00:21:54;;;;;;;3.80;0.43;;;;;;;;;;5031148;28;20542;-74
2023/11/03 00:24:19;;;;;;;2.28;0.57;;;;;;;;;;5018320;28;20194;-73
2023/11/03 00:26:47;;;;;;;2.10;0.40;;;;;;;;;;5029812;28;20193;-76
2023/11/03 00:29:13;;;;;;;3.15;0.50;;;;;;;;;;5029613;28;20206;-75
2023/11/03 00:31:45;;;;;;;2.08;1.10;;;;;;;;;;5029597;28;20205;-74
2023/11/03 00:34:10;;;;;;;1.67;0.45;;;;;;;;;;5031047;28;20556;-74
2023/11/03 00:36:38;;;;;;;1.63;0.50;;;;;;;;;;5046376;28;20190;-74
2023/11/03 00:39:04;;;;;;;1.70;0.55;;;;;;;;;;5029927;28;20221;-74
2023/11/03 00:41:29;;;;;;;2.88;0.50;;;;;;;;;;5021073;28;20237;-75
2023/11/03 00:43:55;;;;;;;6.82;1.00;;;;;;;;;;5025684;28;20596;-74
2023/11/03 00:46:20;;;;;;;2.45;0.55;;;;;;;;;;5029211;28;20190;-75
2023/11/03 00:48:46;;;;;;;7.45;0.65;;;;;;;;;;5019966;28;20198;-74
2023/11/03 00:51:11;;;;;;;3.13;0.57;;;;;;;;;;5023480;28;20241;-74
2023/11/03 00:53:37;;;;;;;2.53;0.70;;;;;;;;;;5023788;28;20183;-74
2023/11/03 00:56:06;;;;;;;1.92;0.45;;;;;;;;;;5026737;28;20182;-74
2023/11/03 00:58:35;;;;;;;3.53;0.60;;;;;;;;;;5023438;28;20199;-74
2023/11/03 01:01:06;;;;;;;3.85;0.73;;;;;;;;;;5028043;28;20244;-74
2023/11/03 01:03:32;;;;;;;2.67;0.80;;;;;;;;;;5024320;28;20290;-74
2023/11/03 01:05:58;;;;;;;3.30;0.60;;;;;;;;;;5030355;28;20724;-76
2023/11/03 01:08:23;;;;;;;1.17;0.65;;;;;;;;;;5028512;28;20388;-74
2023/11/03 01:10:49;;;;;;;1.48;0.50;;;;;;;;;;5020109;28;20198;-75
2023/11/03 01:13:15;;;;;;;4.15;0.65;;;;;;;;;;5029073;28;20201;-74
2023/11/03 01:15:41;;;;;;;1.30;0.50;;;;;;;;;;5028982;28;20251;-74
2023/11/03 01:18:07;;;;;;;2.50;0.60;;;;;;;;;;5022010;28;20281;-73
2023/11/03 01:20:35;;;;;;;3.25;0.60;;;;;;;;;;5023130;28;20191;-73
2023/11/03 01:23:01;;;;;;;1.92;0.65;;;;;;;;;;5026807;28;20260;-75
2023/11/03 01:25:28;;;;;;;1.75;0.55;;;;;;;;;;5018365;28;20268;-73
2023/11/03 01:27:55;;;;;;;3.42;0.57;;;;;;;;;;5028932;28;20228;-74
2023/11/03 01:30:20;;;;;;;3.30;0.77;;;;;;;;;;5013534;28;20268;-74
2023/11/03 01:32:46;;;;;;;1.10;0.30;;;;;;;;;;5028131;28;20270;-74
2023/11/03 01:35:12;;;;;;;2.42;0.50;;;;;;;;;;5030510;28;20669;-74
2023/11/03 01:37:38;;;;;;;1.92;0.50;;;;;;;;;;5026331;28;20225;-72
2023/11/03 01:40:08;;;;;;;1.13;0.40;;;;;;;;;;5027013;28;20682;-74
2023/11/03 01:42:35;;;;;;;1.98;0.65;;;;;;;;;;5025353;28;20523;-73
2023/11/03 01:45:00;;;;;;;2.30;0.80;;;;;;;;;;5044706;28;20659;-74
2023/11/03 01:47:26;;;;;;;3.33;0.68;;;;;;;;;;5024227;28;20271;-75
2023/11/03 01:49:52;;;;;;;1.60;0.57;;;;;;;;;;5028126;28;20255;-75
2023/11/03 01:52:17;;;;;;;1.85;0.50;;;;;;;;;;5016416;28;20314;-75
2023/11/03 01:54:43;;;;;;;1.60;0.52;;;;;;;;;;5024777;28;20257;-74
2023/11/03 01:57:09;;;;;;;0.75;0.35;;;;;;;;;;5025596;28;20260;-75
2023/11/03 01:59:34;;;;;;;2.17;0.65;;;;;;;;;;5051597;28;20192;-75
2023/11/03 02:02:01;;;;;;;2.83;0.70;;;;;;;;;;5028580;28;20489;-74
2023/11/03 02:04:27;;;;;;;2.80;0.77;;;;;;;;;;5020739;28;20208;-72
2023/11/03 02:06:52;;;;;;;3.53;0.50;;;;;;;;;;5005909;28;20186;-74
2023/11/03 02:09:18;;;;;;;3.17;0.77;;;;;;;;;;5028253;28;20246;-75
2023/11/03 02:11:47;;;;;;;2.60;0.40;;;;;;;;;;5027084;28;20663;-73
2023/11/03 02:14:13;;;;;;;2.25;0.60;;;;;;;;;;5029007;28;20190;-73
2023/11/03 02:16:38;;;;;;;3.78;0.60;;;;;;;;;;5027694;28;20280;-74
2023/11/03 02:19:10;;;;;;;2.47;0.68;;;;;;;;;;5033263;28;20235;-74
2023/11/03 02:21:38;;;;;;;0.45;0.32;;;;;;;;;;5028289;28;20222;-75
2023/11/03 02:24:05;;;;;;;2.60;0.55;;;;;;;;;;5047422;28;20186;-75
2023/11/03 02:26:30;;;;;;;3.08;0.55;;;;;;;;;;5031310;28;20332;-74
2023/11/03 02:28:56;;;;;;;3.40;0.60;;;;;;;;;;5022063;28;20224;-73
2023/11/03 02:31:21;;;;;;;1.13;0.55;;;;;;;;;;5031934;28;20198;-72
2023/11/03 02:33:47;;;;;;;2.53;0.70;;;;;;;;;;5042133;28;20304;-72
2023/11/03 02:36:15;;;;;;;2.78;0.88;;;;;;;;;;5032854;28;20224;-75
2023/11/03 02:38:40;;;;;;;2.70;0.60;;;;;;;;;;5027086;28;20199;-73
2023/11/03 02:41:05;;;;;;;2.67;0.60;;;;;;;;;;5027597;28;20197;-76
2023/11/03 02:43:31;;;;;;;1.67;0.50;;;;;;;;;;5029801;28;20273;-75
2023/11/03 02:45:56;;;;;;;1.70;0.50;;;;;;;;;;5032176;28;20186;-75
2023/11/03 02:48:22;;;;;;;3.55;0.60;;;;;;;;;;5018092;28;20277;-74
2023/11/03 02:50:48;;;;;;;3.17;0.50;;;;;;;;;;5025343;28;20398;-75
2023/11/03 02:53:13;;;;;;;2.25;0.50;;;;;;;;;;5021376;28;20687;-75
2023/11/03 02:55:39;;;;;;;4.43;0.65;;;;;;;;;;5026440;28;20195;-75
2023/11/03 02:58:05;;;;;;;2.05;0.60;;;;;;;;;;5017119;28;20198;-74
2023/11/03 03:00:30;;;;;;;2.60;0.85;;;;;;;;;;5023939;28;20641;-74
2023/11/03 03:02:57;;;;;;;2.53;0.57;;;;;;;;;;5030495;28;20198;-72
2023/11/03 03:05:23;;;;;;;3.33;0.63;;;;;;;;;;5031477;28;20214;-73
2023/11/03 03:07:49;;;;;;;1.83;0.70;;;;;;;;;;5016536;28;20249;-75
2023/11/03 03:10:14;;;;;;;3.03;0.40;;;;;;;;;;5015064;28;20241;-75
2023/11/03 03:12:41;;;;;;;2.28;0.40;;;;;;;;;;5039230;28;20194;-72
2023/11/03 03:15:08;;;;;;;2.13;0.50;;;;;;;;;;5029215;28;20208;-74
2023/11/03 03:17:34;;;;;;;4.00;0.40;;;;;;;;;;5030896;28;20713;-75
2023/11/03 03:19:59;;;;;;;1.88;0.40;;;;;;;;;;5026457;28;20272;-73
2023/11/03 03:22:25;;;;;;;0.80;0.25;;;;;;;;;;5020357;28;20297;-75
2023/11/03 03:24:51;;;;;;;3.25;0.50;;;;;;;;;;5030728;28;20201;-74
2023/11/03 03:27:16;;;;;;;3.53;0.50;;;;;;;;;;5029532;28;20189;-75
2023/11/03 03:29:42;;;;;;;2.53;0.45;;;;;;;;;;5031233;28;20293;-71
2023/11/03 03:32:08;;;;;;;1.90;0.50;;;;;;;;;;5026409;28;20209;-72
2023/11/03 03:34:34;;;;;;;2.85;0.45;;;;;;;;;;5031737;28;20206;-73
2023/11/03 03:36:59;;;;;;;3.40;0.70;;;;;;;;;;5019683;28;20202;-75
2023/11/03 03:39:25;;;;;;;3.75;0.70;;;;;;;;;;5028735;28;20657;-73
2023/11/03 03:41:51;;;;;;;1.90;0.50;;;;;;;;;;5019094;28;20201;-74
2023/11/03 03:44:17;;;;;;;1.23;0.50;;;;;;;;;;5028747;28;20255;-74
2023/11/03 03:46:42;;;;;;;3.28;0.73;;;;;;;;;;5025761;28;20186;-75
2023/11/03 03:49:08;;;;;;;3.15;0.43;;;;;;;;;;5024811;28;20237;-74
2023/11/03 03:51:33;;;;;;;2.20;0.47;;;;;;;;;;5026390;28;20280;-75
2023/11/03 03:53:58;;;;;;;3.63;0.63;;;;;;;;;;5030823;28;20224;-73
2023/11/03 03:56:25;;;;;;;2.30;0.60;;;;;;;;;;5027424;28;20233;-74
2023/11/03 03:58:52;;;;;;;2.15;0.60;;;;;;;;;;5027517;28;20700;-72
2023/11/03 04:01:17;;;;;;;3.00;0.55;;;;;;;;;;5020865;28;20186;-74
2023/11/03 04:03:43;;;;;;;1.92;0.45;;;;;;;;;;5032019;28;20190;-73
2023/11/03 04:06:11;;;;;;;2.70;0.60;;;;;;;;;;5034153;28;20532;-72
2023/11/03 04:08:37;;;;;;;3.95;0.60;;;;;;;;;;5017785;28;20218;-73
2023/11/03 04:11:05;;;;;;;5.55;0.70;;;;;;;;;;5031200;28;20198;-74
2023/11/03 04:13:32;;;;;;;2.25;0.63;;;;;;;;;;5030976;28;20261;-74
2023/11/03 04:15:57;;;;;;;2.90;0.60;;;;;;;;;;5030615;28;20238;-74
2023/11/03 04:18:23;;;;;;;1.50;0.50;;;;;;;;;;5028324;28;20209;-74
2023/11/03 04:20:48;;;;;;;2.95;0.47;;;;;;;;;;5034517;28;20657;-75
2023/11/03 04:23:14;;;;;;;2.10;0.50;;;;;;;;;;5026941;28;20186;-75
2023/11/03 04:25:40;;;;;;;6.57;0.90;;;;;;;;;;5019439;28;20197;-74
2023/11/03 04:28:09;;;;;;;6.40;1.10;;;;;;;;;;5028682;28;20228;-74
2023/11/03 04:30:35;;;;;;;1.92;0.57;;;;;;;;;;5028462;28;20210;-73
2023/11/03 04:33:03;;;;;;;2.45;0.65;;;;;;;;;;5019664;28;20205;-76
2023/11/03 04:35:29;;;;;;;6.53;0.60;;;;;;;;;;5026959;28;20194;-73
2023/11/03 04:37:54;;;;;;;3.65;0.90;;;;;;;;;;5020186;28;20190;-74
2023/11/03 04:40:21;;;;;;;3.33;1.27;;;;;;;;;;5021485;28;20182;-73
2023/11/03 04:42:49;;;;;;;2.22;0.57;;;;;;;;;;5025070;28;20194;-75
2023/11/03 04:45:16;;;;;;;2.47;0.80;;;;;;;;;;5033508;28;20277;-75
2023/11/03 04:47:41;;;;;;;5.70;0.80;;;;;;;;;;5027271;28;20182;-72
2023/11/03 04:50:07;;;;;;;3.33;0.80;;;;;;;;;;5019187;28;20207;-75
2023/11/03 04:52:34;;;;;;;3.35;0.68;;;;;;;;;;5041083;28;20281;-73
2023/11/03 04:54:59;;;;;;;3.60;0.77;;;;;;;;;;5030465;28;20189;-74
2023/11/03 04:57:25;;;;;;;3.97;0.65;;;;;;;;;;5027205;28;20189;-74
2023/11/03 04:59:50;;;;;;;3.30;0.73;;;;;;;;;;5022706;28;20189;-73
2023/11/03 05:02:17;;;;;;;3.00;0.90;;;;;;;;;;5019078;28;20274;-75
2023/11/03 05:04:43;;;;;;;2.95;0.60;;;;;;;;;;5023953;28;20252;-71
2023/11/03 05:07:08;;;;;;;2.38;0.90;;;;;;;;;;5028507;28;20202;-73
2023/11/03 05:09:36;;;;;;;4.43;0.90;;;;;;;;;;5020284;28;20206;-73
2023/11/03 05:12:03;;;;;;;2.90;0.60;;;;;;;;;;5025712;28;20190;-72
2023/11/03 05:14:29;;;;;;;3.92;1.10;;;;;;;;;;5021819;28;20771;-71
2023/11/03 05:16:54;;;;;;;2.33;0.68;;;;;;;;;;5025630;28;20233;-74
2023/11/03 05:19:19;;;;;;;7.30;0.80;;;;;;;;;;5023553;28;20610;-72
2023/11/03 05:21:45;;;;;;;2.22;0.70;;;;;;;;;;5029379;28;20194;-73
2023/11/03 05:24:11;;;;;;;4.40;0.60;;;;;;;;;;5024831;28;20189;-74
2023/11/03 05:26:37;;;;;;;3.50;0.70;;;;;;;;;;5026513;28;20241;-73
2023/11/03 05:29:03;;;;;;;4.15;1.08;;;;;;;;;;5028960;28;20746;-72
2023/11/03 05:31:29;;;;;;;3.63;0.80;;;;;;;;;;5025755;28;20217;-73
2023/11/03 05:33:56;;;;;;;3.97;0.90;;;;;;;;;;5017351;28;20260;-74
2023/11/03 05:36:22;;;;;;;1.50;0.50;;;;;;;;;;5018675;28;20234;-74
2023/11/03 05:38:48;;;;;;;5.05;0.73;;;;;;;;;;5021626;28;20191;-74
2023/11/03 05:41:14;;;;;;;2.13;0.88;;;;;;;;;;5024097;28;20222;-72
2023/11/03 05:43:39;;;;;;;6.05;0.90;;;;;;;;;;5015688;28;20640;-72
2023/11/03 05:46:05;;;;;;;2.10;0.70;;;;;;;;;;5021107;28;20197;-75
2023/11/03 05:48:30;;;;;;;5.18;1.05;;;;;;;;;;5029705;28;20276;-73
2023/11/03 05:50:56;;;;;;;4.97;0.90;;;;;;;;;;5028677;28;20182;-72
2023/11/03 05:53:21;;;;;;;3.22;0.85;;;;;;;;;;5023143;28;20217;-74
2023/11/03 05:55:47;;;;;;;4.45;1.20;;;;;;;;;;5022810;28;20376;-72
2023/11/03 05:58:12;;;;;;;4.57;0.95;;;;;;;;;;5030189;28;20407;-74
2023/11/03 06:00:38;;;;;;;7.97;1.20;;;;;;;;;;5020113;28;20729;-76
2023/11/03 06:03:03;;;;;;;7.82;1.40;;;;;;;;;;5032675;28;20292;-74
2023/11/03 06:05:29;;;;;;;4.18;1.05;;;;;;;;;;5033956;28;20193;-71
2023/11/03 06:07:54;;;;;;;4.90;1.20;;;;;;;;;;5026884;28;20641;-73
2023/11/03 06:10:20;;;;;;;4.53;1.27;;;;;;;;;;5025498;28;20244;-76
2023/11/03 06:12:46;;;;;;;6.63;1.17;;;;;;;;;;5047114;28;20613;-71
2023/11/03 06:15:13;;;;;;;5.43;1.20;;;;;;;;;;5030221;28;20214;-75
2023/11/03 06:17:38;;;;;;;13.13;1.50;;;;;;;;;;5025987;28;20245;-75
2023/11/03 06:20:05;;;;;;;3.75;1.30;;;;;;;;;;5030925;28;20178;-74
2023/11/03 06:22:31;;;;;;;5.63;1.00;;;;;;;;;;5026160;28;20190;-73
2023/11/03 06:24:57;;;;;;;4.75;1.10;;;;;;;;;;5030479;28;20197;-73
2023/11/03 06:27:22;;;;;;;6.30;1.27;;;;;;;;;;4338554;28;10000732;-71
2023/11/03 06:29:48;;;;;;;4.50;1.27;;;;;;;;;;5032054;28;20943;-76
2023/11/03 06:32:13;;;;;;;4.32;1.10;;;;;;;;;;5041929;28;20214;-72
2023/11/03 06:34:39;;;;;;;3.33;0.90;;;;;;;;;;5031444;28;20727;-75
2023/11/03 06:37:05;;;;;;;5.25;1.08;;;;;;;;;;5029878;28;20210;-74
2023/11/03 06:39:30;;;;;;;5.25;1.38;;;;;;;;;;5043638;28;20638;-74
2023/11/03 06:41:56;;;;;;;4.28;1.23;;;;;;;;;;5020538;28;20426;-71
2023/11/03 06:44:21;;;;;;;7.28;1.13;;;;;;;;;;5042420;28;20237;-73
2023/11/03 06:46:46;;;;;;;5.43;1.33;;;;;;;;;;5046300;28;20190;-75
2023/11/03 06:49:12;;;;;;;8.95;1.63;;;;;;;;;;5029370;28;20264;-73
2023/11/03 06:51:37;;;;;;;4.32;1.20;;;;;;;;;;5019893;28;20527;-74
2023/11/03 06:54:07;;;;;;;4.03;1.20;;;;;;;;;;5023352;28;20705;-73
2023/11/03 06:56:32;;;;;;;6.57;1.60;;;;;;;;;;5026539;28;20193;-75
2023/11/03 06:58:58;;;;;;;5.20;1.25;;;;;;;;;;5030362;28;20186;-72
2023/11/03 07:01:23;;;;;;;7.50;1.27;;;;;;;;;;5029324;28;20232;-72
2023/11/03 07:03:50;;;;;;;3.70;1.40;;;;;;;;;;5020048;28;20218;-72
2023/11/03 07:06:16;;;;;;;10.10;1.75;;;;;;;;;;5024135;28;20210;-73
2023/11/03 07:08:41;;;;;;;4.50;1.33;;;;;;;;;;5019469;28;20501;-74
2023/11/03 07:11:06;;;;;;;7.25;1.42;;;;;;;;;;5023346;28;20231;-74
2023/11/03 07:13:32;;;;;;;7.10;1.80;;;;;;;;;;5030446;28;20182;-75
2023/11/03 07:15:57;;;;;;;11.07;1.77;;;;;;;;;;5031170;28;20672;-73
2023/11/03 07:18:23;;;;;;;8.77;1.63;;;;;;;;;;5026418;28;20182;-74
2023/11/03 07:20:48;;;;;;;8.07;1.42;;;;;;;;;;5016582;28;20646;-74
2023/11/03 07:23:15;;;;;;;7.05;1.58;;;;;;;;;;5023416;28;20189;-74
2023/11/03 07:25:41;;;;;;;4.65;1.20;;;;;;;;;;5025341;28;20183;-74
2023/11/03 07:28:06;;;;;;;4.30;1.20;;;;;;;;;;5026963;28;20179;-72
2023/11/03 07:30:32;;;;;;;11.70;1.83;;;;;;;;;;5024920;28;20595;-74
2023/11/03 07:32:58;;;;;;;9.82;1.40;;;;;;;;;;5018828;28;20198;-75
2023/11/03 07:35:23;;;;;;;5.47;1.27;;;;;;;;;;5027939;28;20723;-72
2023/11/03 07:37:48;;;;;;;7.45;1.67;;;;;;;;;;5027837;28;20190;-72
2023/11/03 07:40:14;;;;;;;4.30;1.13;;;;;;;;;;5017371;28;20206;-74
2023/11/03 07:42:40;;;;;;;10.65;1.73;;;;;;;;;;5037019;28;20278;-73
2023/11/03 07:45:07;;;;;;;6.03;1.25;;;;;;;;;;5017880;28;20544;-73
2023/11/03 07:47:33;;;;;;;7.68;1.60;;;;;;;;;;5017263;28;20190;-74
2023/11/03 07:49:58;;;;;;;9.80;1.63;;;;;;;;;;5028558;28;20301;-74
2023/11/03 07:52:24;;;;;;;10.13;1.98;;;;;;;;;;5029451;28;20206;-75
2023/11/03 07:54:49;;;;;;;6.20;1.42;;;;;;;;;;5029223;28;20190;-76
2023/11/03 07:57:15;;;;;;;6.63;1.52;;;;;;;;;;5027151;28;20198;-72
2023/11/03 07:59:41;;;;;;;6.60;1.23;;;;;;;;;;5033155;28;20189;-74
2023/11/03 08:02:07;;;;;;;6.85;1.02;;;;;;;;;;5029730;28;20552;-74
2023/11/03 08:04:32;;;;;;;7.43;1.48;;;;;;;;;;5046479;28;20208;-75
2023/11/03 08:06:58;;;;;;;9.80;2.15;;;;;;;;;;5031579;28;20218;-74
2023/11/03 08:09:27;;;;;;;5.78;1.33;;;;;;;;;;5029134;28;20206;-73
2023/11/03 08:11:55;;;;;;;8.93;1.38;;;;;;;;;;5031472;28;20190;-72
2023/11/03 08:14:21;;;;;;;7.18;1.42;;;;;;;;;;5026741;28;20247;-74
2023/11/03 08:16:47;;;;;;;6.70;1.40;;;;;;;;;;5029439;28;20227;-74
2023/11/03 08:19:13;;;;;;;5.68;1.48;;;;;;;;;;5027335;28;20665;-72
2023/11/03 08:21:42;;;;;;;9.95;1.50;;;;;;;;;;5032483;28;20613;-74
2023/11/03 08:24:11;;;;;;;8.95;1.65;;;;;;;;;;5045452;28;20657;-70
2023/11/03 08:26:37;;;;;;;8.80;1.60;;;;;;;;;;5037748;28;20205;-71
2023/11/03 08:29:03;;;;;;;9.13;1.63;;;;;;;;;;5030162;28;20214;-75
2023/11/03 08:31:29;;;;;;;9.98;2.00;;;;;;;;;;5030812;28;20272;-71
2023/11/03 08:33:55;;;;;;;9.00;1.75;;;;;;;;;;5030439;28;20641;-71
2023/11/03 08:36:20;;;;;;;13.55;1.75;;;;;;;;;;5022768;28;20565;-76
2023/11/03 08:38:47;;;;;;;6.75;1.55;;;;;;;;;;5004144;28;20179;-71
2023/11/03 08:41:12;;;;;;;8.88;1.67;;;;;;;;;;5017458;28;20724;-71
2023/11/03 08:43:38;;;;;;;9.43;1.80;;;;;;;;;;5026223;28;20182;-73
2023/11/03 08:46:03;;;;;;;9.63;2.33;;;;;;;;;;5029412;28;20273;-76
2023/11/03 08:48:29;;;;;;;10.13;1.70;;;;;;;;;;5029193;28;20638;-74
2023/11/03 08:50:54;;;;;;;11.00;1.88;;;;;;;;;;5030282;28;20661;-71
2023/11/03 08:53:23;;;;;;;9.35;1.70;;;;;;;;;;5030488;28;20572;-74
2023/11/03 08:55:50;;;;;;;8.30;1.75;;;;;;;;;;4997254;28;20182;-75
2023/11/03 08:58:16;;;;;;;7.70;1.55;;;;;;;;;;5026368;28;20186;-73
2023/11/03 09:00:44;;;;;;;10.32;1.80;;;;;;;;;;5035575;28;20212;-72
2023/11/03 09:03:10;;;;;;;11.90;2.70;;;;;;;;;;5031330;28;20204;-71
2023/11/03 09:05:35;;;;;;;10.60;1.40;;;;;;;;;;5030247;28;20171;-73
2023/11/03 09:08:01;;;;;;;7.13;1.88;;;;;;;;;;5029650;28;20288;-71
2023/11/03 09:10:28;;;;;;;8.10;1.77;;;;;;;;;;5029925;28;20217;-75
2023/11/03 09:12:54;;;;;;;6.95;1.92;;;;;;;;;;5036624;28;20225;-74
2023/11/03 09:15:20;;;;;;;11.27;2.00;;;;;;;;;;5019368;28;20242;-72
2023/11/03 09:17:45;;;;;;;9.15;1.98;;;;;;;;;;5022340;28;20214;-71
2023/11/03 09:20:12;;;;;;;7.03;1.60;;;;;;;;;;5027771;28;20224;-70
2023/11/03 09:22:37;;;;;;;9.60;1.73;;;;;;;;;;5027804;28;20268;-70
2023/11/03 09:25:04;;;;;;;10.02;2.00;;;;;;;;;;5029892;28;20251;-72
2023/11/03 09:27:31;;;;;;;12.45;1.70;;;;;;;;;;5034349;28;20182;-70
2023/11/03 09:29:56;;;;;;;13.50;1.70;;;;;;;;;;5026803;28;20221;-74
2023/11/03 09:32:22;;;;;;;9.18;1.70;;;;;;;;;;5023309;28;20269;-72
2023/11/03 09:34:47;;;;;;;12.60;1.83;;;;;;;;;;5020646;28;20248;-71
2023/11/03 09:37:13;;;;;;;10.77;1.88;;;;;;;;;;5025338;28;20186;-72
2023/11/03 09:39:42;;;;;;;10.45;1.80;;;;;;;;;;5030300;28;20248;-75
2023/11/03 09:42:09;;;;;;;9.48;2.10;;;;;;;;;;5028776;28;20269;-70
2023/11/03 09:44:36;;;;;;;12.10;2.13;;;;;;;;;;5025098;28;20244;-73
2023/11/03 09:47:04;;;;;;;12.00;2.30;;;;;;;;;;5029750;28;20186;-73
2023/11/03 09:49:30;;;;;;;8.15;1.75;;;;;;;;;;5028357;28;20291;-72
2023/11/03 09:52:14;;;;;;;5.35;1.48;;;;;;;;;;5028089;28;20186;-71
2023/11/03 09:54:39;;;;;;;11.43;1.88;;;;;;;;;;5028683;28;20186;-75
2023/11/03 09:57:08;;;;;;;13.60;2.67;;;;;;;;;;5023650;28;20197;-73
2023/11/03 09:59:35;;;;;;;8.85;1.48;;;;;;;;;;5031640;28;20649;-73
2023/11/03 10:02:15;;;;;;;9.00;1.67;;;;;;;;;;5027442;28;20179;-72
2023/11/03 10:04:41;;;;;;;12.70;2.03;;;;;;;;;;5024573;28;20190;-74
2023/11/03 10:07:10;;;;;;;14.57;1.52;;;;;;;;;;5029456;28;20197;-73
2023/11/03 10:09:35;;;;;;;10.75;2.00;;;;;;;;;;5042403;28;20278;-71
2023/11/03 10:12:03;;;;;;;7.75;1.60;;;;;;;;;;5027875;28;20677;-71
2023/11/03 10:14:29;;;;;;;9.55;1.65;;;;;;;;;;5029767;28;20214;-71
2023/11/03 10:16:58;;;;;;;14.45;2.13;;;;;;;;;;5027035;28;20240;-72
2023/11/03 10:19:25;;;;;;;12.65;2.20;;;;;;;;;;5028106;28;20538;-72
2023/11/03 10:21:51;;;;;;;11.52;1.90;;;;;;;;;;5009352;28;20179;-73
2023/11/03 10:24:16;;;;;;;13.20;1.90;;;;;;;;;;5018308;28;20190;-72
2023/11/03 10:26:42;;;;;;;8.43;1.85;;;;;;;;;;5029283;28;20198;-72
2023/11/03 10:29:07;;;;;;;14.07;2.67;;;;;;;;;;5027978;28;20436;-72
2023/11/03 10:31:33;;;;;;;8.68;2.30;;;;;;;;;;5029179;28;20198;-72
2023/11/03 10:33:58;;;;;;;14.40;2.38;;;;;;;;;;5025918;28;20185;-71
2023/11/03 10:36:26;;;;;;;8.32;1.60;;;;;;;;;;5030031;28;20537;-76
2023/11/03 10:38:54;;;;;;;9.65;2.17;;;;;;;;;;5016063;28;20217;-70
2023/11/03 10:41:19;;;;;;;15.73;2.05;;;;;;;;;;5031779;28;20182;-72
2023/11/03 10:43:54;;;;;;;9.35;1.60;;;;;;;;;;5014860;28;20236;-72
2023/11/03 10:46:37;;;;;;;10.02;2.28;;;;;;;;;;5033217;28;20185;-72
2023/11/03 10:49:15;;;;;;;11.88;2.10;;;;;;;;;;5031233;28;20629;-69
2023/11/03 10:51:51;;;;;;;11.80;1.67;;;;;;;;;;5014055;28;20269;-71
2023/11/03 10:54:37;;;;;;;11.43;1.90;;;;;;;;;;5031254;28;20660;-73
2023/11/03 10:57:04;;;;;;;11.18;1.80;;;;;;;;;;5032252;28;20618;-74
2023/11/03 10:59:31;;;;;;;10.63;1.58;;;;;;;;;;5040371;28;20193;-73
2023/11/03 11:02:31;;;;;;;10.07;1.75;;;;;;;;;;5019363;28;20209;-72
2023/11/03 11:05:08;;;;;;;15.43;2.35;;;;;;;;;;5016210;28;20190;-73
2023/11/03 11:07:35;;;;;;;9.13;2.45;;;;;;;;;;5030639;28;20205;-74
2023/11/03 11:10:01;;;;;;;9.85;2.20;;;;;;;;;;5030508;28;20583;-73
2023/11/03 11:12:46;;;;;;;8.93;2.03;;;;;;;;;;5021428;28;20202;-74
2023/11/03 11:15:17;;;;;;;6.57;2.25;;;;;;;;;;5017770;28;20213;-73
2023/11/03 11:17:43;;;;;;;10.30;1.90;;;;;;;;;;5030973;28;20514;-73
2023/11/03 11:20:12;;;;;;;11.65;2.83;;;;;;;;;;5022967;28;20206;-74
2023/11/03 11:22:40;;;;;;;9.57;3.10;;;;;;;;;;5022172;28;20669;-74
2023/11/03 11:25:07;;;;;;;10.43;2.53;;;;;;;;;;5018506;28;20202;-72
2023/11/03 11:27:38;;;;;;;10.77;1.92;;;;;;;;;;5029910;28;20198;-74
2023/11/03 11:30:17;;;;;;;12.93;1.92;;;;;;;;;;5024369;28;20685;-71
2023/11/03 11:32:53;;;;;;;9.52;1.65;;;;;;;;;;5015895;28;20202;-73
2023/11/03 11:35:20;;;;;;;8.65;1.98;;;;;;;;;;5040092;28;20184;-72
2023/11/03 11:37:45;;;;;;;11.75;1.85;;;;;;;;;;5020922;28;20191;-73
2023/11/03 11:40:11;;;;;;;10.20;2.25;;;;;;;;;;5014215;28;20183;-71
2023/11/03 11:42:43;;;;;;;12.60;2.05;;;;;;;;;;5026342;28;20682;-70
2023/11/03 11:45:11;;;;;;;12.18;2.25;;;;;;;;;;5017337;28;20526;-74
2023/11/03 11:47:41;;;;;;;12.65;1.75;;;;;;;;;;5027910;28;20228;-75
2023/11/03 11:50:08;;;;;;;14.18;2.35;;;;;;;;;;5022029;28;20305;-70
2023/11/03 11:52:36;;;;;;;12.95;2.30;;;;;;;;;;5019270;28;20202;-74
2023/11/03 11:55:02;;;;;;;11.10;1.92;;;;;;;;;;5020243;28;20201;-70
2023/11/03 11:57:29;;;;;;;10.30;2.65;;;;;;;;;;5030333;28;20187;-71
2023/11/03 11:59:55;;;;;;;9.82;2.00;;;;;;;;;;5022667;28;20194;-73
2023/11/03 12:02:22;;;;;;;6.20;1.80;;;;;;;;;;5030006;28;20645;-71
2023/11/03 12:04:53;;;;;;;11.32;2.05;;;;;;;;;;5029028;28;20320;-74
2023/11/03 12:07:23;;;;;;;12.10;2.47;;;;;;;;;;5024727;28;20186;-72
2023/11/03 12:09:54;;;;;;;10.05;2.08;;;;;;;;;;5026735;28;20289;-71
2023/11/03 12:12:23;;;;;;;10.85;2.05;;;;;;;;;;5020035;28;20289;-71
2023/11/03 12:14:50;;;;;;;12.30;1.90;;;;;;;;;;5031543;28;20253;-71
2023/11/03 12:17:16;;;;;;;12.15;2.17;;;;;;;;;;5030384;28;20222;-70
2023/11/03 12:19:46;;;;;;;9.60;1.98;;;;;;;;;;5031098;28;20680;-72
2023/11/03 12:22:19;;;;;;;13.20;2.22;;;;;;;;;;5029798;28;20762;-72
2023/11/03 12:24:47;;;;;;;12.45;1.80;;;;;;;;;;5030640;28;20200;-69
2023/11/03 12:27:12;;;;;;;11.95;1.88;;;;;;;;;;5022532;28;20186;-71
2023/11/03 12:29:39;;;;;;;12.15;2.00;;;;;;;;;;5034620;28;20198;-70
2023/11/03 12:32:05;;;;;;;11.38;2.10;;;;;;;;;;5029743;28;20545;-71
2023/11/03 12:34:31;;;;;;;11.77;2.30;;;;;;;;;;5029340;28;20228;-69
2023/11/03 12:36:57;;;;;;;13.70;2.10;;;;;;;;;;5028772;28;20268;-73
2023/11/03 12:39:23;;;;;;;16.42;2.25;;;;;;;;;;5026374;28;20198;-74
2023/11/03 12:42:09;;;;;;;12.70;1.48;;;;;;;;;;5029162;28;20313;-70
2023/11/03 12:44:51;;;;;;;15.80;2.38;;;;;;;;;;5035002;28;20849;-72
2023/11/03 12:47:37;;;;;;;10.63;1.90;;;;;;;;;;5014988;28;20541;-69
2023/11/03 12:50:20;;;;;;;13.90;2.08;;;;;;;;;;5019431;28;20272;-71
2023/11/03 12:52:50;;;;;;;11.27;2.15;;;;;;;;;;5027731;28;20186;-71
2023/11/03 12:55:23;;;;;;;9.95;2.78;;;;;;;;;;5018416;28;20202;-72
2023/11/03 12:57:49;;;;;;;15.52;2.80;;;;;;;;;;5015623;28;20308;-71
2023/11/03 13:00:15;;;;;;;13.48;2.25;;;;;;;;;;5031764;28;20186;-71
2023/11/03 13:02:45;;;;;;;10.32;2.00;;;;;;;;;;5024980;28;20328;-72
2023/11/03 13:05:11;;;;;;;9.00;1.73;;;;;;;;;;5025379;28;20186;-73
2023/11/03 13:07:38;;;;;;;10.52;2.00;;;;;;;;;;5019862;28;20209;-71
2023/11/03 13:10:10;;;;;;;11.35;1.90;;;;;;;;;;5022767;28;20497;-74
2023/11/03 13:12:39;;;;;;;14.55;1.90;;;;;;;;;;5022196;28;20190;-70
2023/11/03 13:15:06;;;;;;;14.38;2.47;;;;;;;;;;5032472;28;20222;-74
2023/11/03 13:17:32;;;;;;;8.73;1.80;;;;;;;;;;5026060;28;20218;-71
2023/11/03 13:19:58;;;;;;;9.68;1.65;;;;;;;;;;5029770;28;20185;-70
2023/11/03 13:22:24;;;;;;;10.60;1.80;;;;;;;;;;5026469;28;20233;-73
2023/11/03 13:24:49;;;;;;;8.60;1.60;;;;;;;;;;5035157;28;20212;-72
2023/11/03 13:27:14;;;;;;;12.27;1.65;;;;;;;;;;5030380;28;20188;-72
2023/11/03 13:29:40;;;;;;;10.43;1.65;;;;;;;;;;5030750;28;20210;-72
2023/11/03 13:32:06;;;;;;;12.63;2.17;;;;;;;;;;5013161;28;20538;-74
2023/11/03 13:34:42;;;;;;;10.03;1.64;;;;;;;;;;4585021;28;10002907;-73
2023/11/03 13:37:09;;;;;;;12.55;1.70;;;;;;;;;;5032269;28;20254;-72
2023/11/03 13:39:34;;;;;;;10.00;1.60;;;;;;;;;;5024950;28;20267;-70
2023/11/03 13:42:01;;;;;;;9.25;1.73;;;;;;;;;;5020937;28;20642;-72
2023/11/03 13:44:28;;;;;;;9.13;1.70;;;;;;;;;;5034032;28;20190;-70
2023/11/03 13:46:54;;;;;;;11.88;2.20;;;;;;;;;;5023125;28;20569;-72
2023/11/03 13:49:20;;;;;;;10.40;1.60;;;;;;;;;;5026903;28;20339;-73
2023/11/03 13:51:45;;;;;;;12.00;1.77;;;;;;;;;;5029362;28;20274;-68
2023/11/03 13:54:10;;;;;;;7.38;1.55;;;;;;;;;;5010267;28;20261;-73
2023/11/03 13:56:36;;;;;;;8.38;1.50;;;;;;;;;;5024756;28;20224;-71
2023/11/03 13:59:01;;;;;;;8.10;1.85;;;;;;;;;;5022411;28;20197;-75
2023/11/03 14:01:29;;;;;;;6.32;1.33;;;;;;;;;;5007002;28;20663;-73
2023/11/03 14:03:55;;;;;;;11.80;1.70;;;;;;;;;;5024333;28;20274;-69
2023/11/03 14:06:22;;;;;;;11.32;1.80;;;;;;;;;;5020778;28;20286;-71
2023/11/03 14:08:49;;;;;;;8.43;1.67;;;;;;;;;;5023385;28;20597;-73
2023/11/03 14:11:15;;;;;;;12.30;2.03;;;;;;;;;;5006207;28;20573;-70
2023/11/03 14:13:41;;;;;;;7.32;1.30;;;;;;;;;;5030100;28;20578;-70
2023/11/03 14:16:07;;;;;;;12.70;1.77;;;;;;;;;;5014175;28;20235;-72
2023/11/03 14:18:32;;;;;;;9.82;1.88;;;;;;;;;;5014627;28;20231;-71
2023/11/03 14:20:58;;;;;;;5.47;1.40;;;;;;;;;;5025972;28;20192;-72
2023/11/03 14:23:27;;;;;;;10.70;2.10;;;;;;;;;;5020902;28;20391;-70
2023/11/03 14:25:55;;;;;;;10.05;1.65;;;;;;;;;;5029611;28;20236;-74
2023/11/03 14:28:20;;;;;;;9.77;1.80;;;;;;;;;;5026748;28;20752;-71
2023/11/03 14:30:48;;;;;;;7.72;1.55;;;;;;;;;;5025814;28;20206;-71
2023/11/03 14:33:22;;;;;;;11.43;1.65;;;;;;;;;;5021705;28;20182;-74
2023/11/03 14:35:47;;;;;;;9.07;1.50;;;;;;;;;;5027202;28;20228;-74
2023/11/03 14:38:21;;;;;;;9.27;1.48;;;;;;;;;;5032410;28;20313;-74